sensor_id;sensor_type;location;lat;lon;timestamp;P1;durP1;ratioP1;P2;durP2;ratioP2
68192;SDS011;55012;47.562;18.414;2023-12-20T00:00:01;42.45;;;15.70;;
68192;SDS011;55012;47.562;18.414;2023-12-20T00:02:26;43.40;;;15.70;;
68192;SDS011;55012;47.562;18.414;2023-12-20T00:04:51;41.75;;;15.30;;
68192;SDS011;55012;47.562;18.414;2023-12-20T00:07:16;41.70;;;14.40;;
68192;SDS011;55012;47.562;18.414;2023-12-20T00:09:42;41.15;;;15.43;;
68192;SDS011;55012;47.562;18.414;2023-12-20T00:12:07;46.70;;;15.30;;
68192;SDS011;55012;47.562;18.414;2023-12-20T00:14:33;49.72;;;16.23;;
68192;SDS011;55012;47.562;18.414;2023-12-20T00:16:58;49.47;;;16.48;;
68192;SDS011;55012;47.562;18.414;2023-12-20T00:19:23;45.30;;;17.15;;
68192;SDS011;55012;47.562;18.414;2023-12-20T00:21:49;48.00;;;17.85;;
68192;SDS011;55012;47.562;18.414;2023-12-20T00:24:14;44.50;;;16.38;;
68192;SDS011;55012;47.562;18.414;2023-12-20T00:26:39;48.03;;;17.63;;
68192;SDS011;55012;47.562;18.414;2023-12-20T00:29:05;47.17;;;17.27;;
68192;SDS011;55012;47.562;18.414;2023-12-20T00:31:30;43.45;;;15.68;;
68192;SDS011;55012;47.562;18.414;2023-12-20T00:33:56;44.25;;;16.17;;
68192;SDS011;55012;47.562;18.414;2023-12-20T00:36:21;45.97;;;15.88;;
68192;SDS011;55012;47.562;18.414;2023-12-20T00:38:46;42.20;;;16.50;;
68192;SDS011;55012;47.562;18.414;2023-12-20T00:41:12;46.55;;;16.95;;
68192;SDS011;55012;47.562;18.414;2023-12-20T00:43:38;43.85;;;16.80;;
68192;SDS011;55012;47.562;18.414;2023-12-20T00:46:03;45.33;;;15.30;;
68192;SDS011;55012;47.562;18.414;2023-12-20T00:48:29;43.33;;;16.13;;
68192;SDS011;55012;47.562;18.414;2023-12-20T00:50:56;44.22;;;15.70;;
68192;SDS011;55012;47.562;18.414;2023-12-20T00:53:22;42.47;;;15.95;;
68192;SDS011;55012;47.562;18.414;2023-12-20T00:55:47;43.33;;;15.20;;
68192;SDS011;55012;47.562;18.414;2023-12-20T00:58:13;38.10;;;16.13;;
68192;SDS011;55012;47.562;18.414;2023-12-20T01:00:40;39.33;;;15.50;;
68192;SDS011;55012;47.562;18.414;2023-12-20T01:03:07;46.45;;;16.48;;
68192;SDS011;55012;47.562;18.414;2023-12-20T01:05:32;40.92;;;15.25;;
68192;SDS011;55012;47.562;18.414;2023-12-20T01:07:57;43.38;;;16.35;;
68192;SDS011;55012;47.562;18.414;2023-12-20T01:10:23;47.35;;;16.80;;
68192;SDS011;55012;47.562;18.414;2023-12-20T01:12:48;48.20;;;15.73;;
68192;SDS011;55012;47.562;18.414;2023-12-20T01:15:14;49.50;;;15.88;;
68192;SDS011;55012;47.562;18.414;2023-12-20T01:17:39;43.38;;;16.33;;
68192;SDS011;55012;47.562;18.414;2023-12-20T01:20:05;44.33;;;15.90;;
68192;SDS011;55012;47.562;18.414;2023-12-20T01:22:31;49.10;;;16.75;;
68192;SDS011;55012;47.562;18.414;2023-12-20T01:24:56;44.60;;;16.48;;
68192;SDS011;55012;47.562;18.414;2023-12-20T01:27:21;44.55;;;16.63;;
68192;SDS011;55012;47.562;18.414;2023-12-20T01:29:47;47.08;;;15.82;;
68192;SDS011;55012;47.562;18.414;2023-12-20T01:32:12;46.28;;;16.98;;
68192;SDS011;55012;47.562;18.414;2023-12-20T01:34:37;45.72;;;16.65;;
68192;SDS011;55012;47.562;18.414;2023-12-20T01:37:03;45.65;;;16.92;;
68192;SDS011;55012;47.562;18.414;2023-12-20T01:39:29;50.67;;;17.38;;
68192;SDS011;55012;47.562;18.414;2023-12-20T01:41:54;46.30;;;16.85;;
68192;SDS011;55012;47.562;18.414;2023-12-20T01:44:19;44.88;;;17.23;;
68192;SDS011;55012;47.562;18.414;2023-12-20T01:46:45;44.08;;;15.93;;
68192;SDS011;55012;47.562;18.414;2023-12-20T01:49:11;48.60;;;16.48;;
68192;SDS011;55012;47.562;18.414;2023-12-20T01:51:37;46.05;;;16.80;;
68192;SDS011;55012;47.562;18.414;2023-12-20T01:54:03;52.00;;;17.25;;
68192;SDS011;55012;47.562;18.414;2023-12-20T01:56:29;47.22;;;16.52;;
68192;SDS011;55012;47.562;18.414;2023-12-20T01:58:56;49.45;;;16.85;;
68192;SDS011;55012;47.562;18.414;2023-12-20T02:01:22;48.33;;;18.75;;
68192;SDS011;55012;47.562;18.414;2023-12-20T02:03:47;58.55;;;20.00;;
68192;SDS011;55012;47.562;18.414;2023-12-20T02:06:13;65.32;;;24.25;;
68192;SDS011;55012;47.562;18.414;2023-12-20T02:08:39;76.55;;;28.20;;
68192;SDS011;55012;47.562;18.414;2023-12-20T02:11:04;76.80;;;27.00;;
68192;SDS011;55012;47.562;18.414;2023-12-20T02:13:30;69.45;;;24.48;;
68192;SDS011;55012;47.562;18.414;2023-12-20T02:15:56;59.58;;;20.02;;
68192;SDS011;55012;47.562;18.414;2023-12-20T02:18:21;56.30;;;18.27;;
68192;SDS011;55012;47.562;18.414;2023-12-20T02:20:47;44.92;;;17.10;;
68192;SDS011;55012;47.562;18.414;2023-12-20T02:23:12;58.83;;;22.10;;
68192;SDS011;55012;47.562;18.414;2023-12-20T02:25:38;66.38;;;25.33;;
68192;SDS011;55012;47.562;18.414;2023-12-20T02:28:03;70.32;;;26.90;;
68192;SDS011;55012;47.562;18.414;2023-12-20T02:30:29;82.63;;;28.08;;
68192;SDS011;55012;47.562;18.414;2023-12-20T02:32:55;77.30;;;26.00;;
68192;SDS011;55012;47.562;18.414;2023-12-20T02:35:21;68.57;;;24.52;;
68192;SDS011;55012;47.562;18.414;2023-12-20T02:37:46;61.03;;;21.73;;
68192;SDS011;55012;47.562;18.414;2023-12-20T02:40:11;65.55;;;23.98;;
68192;SDS011;55012;47.562;18.414;2023-12-20T02:42:37;59.30;;;24.25;;
68192;SDS011;55012;47.562;18.414;2023-12-20T02:45:02;57.45;;;23.10;;
68192;SDS011;55012;47.562;18.414;2023-12-20T02:47:28;66.60;;;26.00;;
68192;SDS011;55012;47.562;18.414;2023-12-20T02:49:54;72.30;;;25.55;;
68192;SDS011;55012;47.562;18.414;2023-12-20T02:52:20;62.88;;;22.65;;
68192;SDS011;55012;47.562;18.414;2023-12-20T02:54:46;57.53;;;20.63;;
68192;SDS011;55012;47.562;18.414;2023-12-20T02:57:11;47.75;;;18.05;;
68192;SDS011;55012;47.562;18.414;2023-12-20T02:59:37;50.17;;;18.05;;
68192;SDS011;55012;47.562;18.414;2023-12-20T03:02:02;48.33;;;17.98;;
68192;SDS011;55012;47.562;18.414;2023-12-20T03:04:27;45.60;;;17.40;;
68192;SDS011;55012;47.562;18.414;2023-12-20T03:06:53;52.85;;;16.13;;
68192;SDS011;55012;47.562;18.414;2023-12-20T03:09:18;53.25;;;18.77;;
68192;SDS011;55012;47.562;18.414;2023-12-20T03:11:43;51.50;;;18.50;;
68192;SDS011;55012;47.562;18.414;2023-12-20T03:14:09;46.72;;;17.52;;
68192;SDS011;55012;47.562;18.414;2023-12-20T03:16:34;48.83;;;16.90;;
68192;SDS011;55012;47.562;18.414;2023-12-20T03:18:59;49.70;;;18.08;;
68192;SDS011;55012;47.562;18.414;2023-12-20T03:21:25;46.83;;;18.52;;
68192;SDS011;55012;47.562;18.414;2023-12-20T03:23:50;42.08;;;17.42;;
68192;SDS011;55012;47.562;18.414;2023-12-20T03:26:15;48.13;;;17.80;;
68192;SDS011;55012;47.562;18.414;2023-12-20T03:28:41;46.42;;;17.08;;
68192;SDS011;55012;47.562;18.414;2023-12-20T03:31:06;41.28;;;16.52;;
68192;SDS011;55012;47.562;18.414;2023-12-20T03:33:32;41.92;;;15.98;;
68192;SDS011;55012;47.562;18.414;2023-12-20T03:35:57;45.00;;;16.77;;
68192;SDS011;55012;47.562;18.414;2023-12-20T03:38:22;43.05;;;17.20;;
68192;SDS011;55012;47.562;18.414;2023-12-20T03:40:50;41.83;;;16.75;;
68192;SDS011;55012;47.562;18.414;2023-12-20T03:43:16;46.13;;;17.75;;
68192;SDS011;55012;47.562;18.414;2023-12-20T03:45:44;43.20;;;16.60;;
68192;SDS011;55012;47.562;18.414;2023-12-20T03:48:09;44.28;;;16.90;;
68192;SDS011;55012;47.562;18.414;2023-12-20T03:50:35;46.42;;;16.83;;
68192;SDS011;55012;47.562;18.414;2023-12-20T03:53:00;40.60;;;16.33;;
68192;SDS011;55012;47.562;18.414;2023-12-20T03:55:26;42.70;;;16.83;;
68192;SDS011;55012;47.562;18.414;2023-12-20T03:57:51;45.15;;;16.90;;
68192;SDS011;55012;47.562;18.414;2023-12-20T04:00:17;48.40;;;16.95;;
68192;SDS011;55012;47.562;18.414;2023-12-20T04:02:42;46.80;;;16.90;;
68192;SDS011;55012;47.562;18.414;2023-12-20T04:05:08;47.85;;;17.80;;
68192;SDS011;55012;47.562;18.414;2023-12-20T04:07:35;47.35;;;17.02;;
68192;SDS011;55012;47.562;18.414;2023-12-20T04:10:01;61.70;;;16.65;;
68192;SDS011;55012;47.562;18.414;2023-12-20T04:12:30;53.33;;;17.33;;
68192;SDS011;55012;47.562;18.414;2023-12-20T04:14:56;56.28;;;17.80;;
68192;SDS011;55012;47.562;18.414;2023-12-20T04:17:21;65.93;;;19.17;;
68192;SDS011;55012;47.562;18.414;2023-12-20T04:19:49;56.25;;;19.10;;
68192;SDS011;55012;47.562;18.414;2023-12-20T04:22:15;58.38;;;19.75;;
68192;SDS011;55012;47.562;18.414;2023-12-20T04:24:41;53.15;;;19.63;;
68192;SDS011;55012;47.562;18.414;2023-12-20T04:27:07;53.60;;;19.13;;
68192;SDS011;55012;47.562;18.414;2023-12-20T04:29:33;54.00;;;18.52;;
68192;SDS011;55012;47.562;18.414;2023-12-20T04:31:58;51.50;;;18.10;;
68192;SDS011;55012;47.562;18.414;2023-12-20T04:34:23;50.85;;;17.73;;
68192;SDS011;55012;47.562;18.414;2023-12-20T04:36:49;49.45;;;17.30;;
68192;SDS011;55012;47.562;18.414;2023-12-20T04:39:14;47.05;;;17.67;;
68192;SDS011;55012;47.562;18.414;2023-12-20T04:41:42;47.92;;;16.48;;
68192;SDS011;55012;47.562;18.414;2023-12-20T04:44:08;49.35;;;17.98;;
68192;SDS011;55012;47.562;18.414;2023-12-20T04:46:33;53.47;;;19.08;;
68192;SDS011;55012;47.562;18.414;2023-12-20T04:48:58;55.40;;;19.15;;
68192;SDS011;55012;47.562;18.414;2023-12-20T04:51:24;59.60;;;18.70;;
68192;SDS011;55012;47.562;18.414;2023-12-20T04:53:49;43.88;;;16.95;;
68192;SDS011;55012;47.562;18.414;2023-12-20T04:56:15;51.90;;;18.23;;
68192;SDS011;55012;47.562;18.414;2023-12-20T04:58:40;50.65;;;19.10;;
68192;SDS011;55012;47.562;18.414;2023-12-20T05:01:07;52.20;;;18.70;;
68192;SDS011;55012;47.562;18.414;2023-12-20T05:03:33;49.22;;;16.73;;
68192;SDS011;55012;47.562;18.414;2023-12-20T05:05:59;43.83;;;17.25;;
68192;SDS011;55012;47.562;18.414;2023-12-20T05:08:24;47.45;;;18.40;;
68192;SDS011;55012;47.562;18.414;2023-12-20T05:10:50;56.28;;;19.80;;
68192;SDS011;55012;47.562;18.414;2023-12-20T05:13:16;53.20;;;20.48;;
68192;SDS011;55012;47.562;18.414;2023-12-20T05:15:41;52.90;;;19.33;;
68192;SDS011;55012;47.562;18.414;2023-12-20T05:18:07;53.55;;;19.42;;
68192;SDS011;55012;47.562;18.414;2023-12-20T05:20:32;54.42;;;18.83;;
68192;SDS011;55012;47.562;18.414;2023-12-20T05:22:57;64.03;;;22.52;;
68192;SDS011;55012;47.562;18.414;2023-12-20T05:25:23;90.97;;;30.40;;
68192;SDS011;55012;47.562;18.414;2023-12-20T05:27:48;108.95;;;37.58;;
68192;SDS011;55012;47.562;18.414;2023-12-20T05:30:14;106.30;;;36.25;;
68192;SDS011;55012;47.562;18.414;2023-12-20T05:32:39;108.25;;;39.83;;
68192;SDS011;55012;47.562;18.414;2023-12-20T05:35:05;97.88;;;34.78;;
68192;SDS011;55012;47.562;18.414;2023-12-20T05:37:30;78.70;;;27.48;;
68192;SDS011;55012;47.562;18.414;2023-12-20T05:39:56;50.97;;;19.45;;
68192;SDS011;55012;47.562;18.414;2023-12-20T05:42:21;43.22;;;16.45;;
68192;SDS011;55012;47.562;18.414;2023-12-20T05:44:46;47.10;;;17.27;;
68192;SDS011;55012;47.562;18.414;2023-12-20T05:47:12;46.58;;;18.08;;
68192;SDS011;55012;47.562;18.414;2023-12-20T05:49:37;42.90;;;17.58;;
68192;SDS011;55012;47.562;18.414;2023-12-20T05:52:02;46.15;;;18.67;;
68192;SDS011;55012;47.562;18.414;2023-12-20T05:54:28;50.95;;;19.30;;
68192;SDS011;55012;47.562;18.414;2023-12-20T05:56:53;60.60;;;20.88;;
68192;SDS011;55012;47.562;18.414;2023-12-20T05:59:18;69.22;;;22.55;;
68192;SDS011;55012;47.562;18.414;2023-12-20T06:01:44;77.80;;;22.67;;
68192;SDS011;55012;47.562;18.414;2023-12-20T06:04:09;79.57;;;24.17;;
68192;SDS011;55012;47.562;18.414;2023-12-20T06:06:39;73.45;;;22.40;;
68192;SDS011;55012;47.562;18.414;2023-12-20T06:09:06;65.40;;;23.38;;
68192;SDS011;55012;47.562;18.414;2023-12-20T06:11:31;70.85;;;22.90;;
68192;SDS011;55012;47.562;18.414;2023-12-20T06:13:56;124.53;;;24.05;;
68192;SDS011;55012;47.562;18.414;2023-12-20T06:16:22;68.22;;;23.33;;
68192;SDS011;55012;47.562;18.414;2023-12-20T06:18:47;117.55;;;25.52;;
68192;SDS011;55012;47.562;18.414;2023-12-20T06:21:12;102.93;;;24.00;;
68192;SDS011;55012;47.562;18.414;2023-12-20T06:23:38;67.40;;;23.60;;
68192;SDS011;55012;47.562;18.414;2023-12-20T06:26:04;68.53;;;22.23;;
68192;SDS011;55012;47.562;18.414;2023-12-20T06:28:29;71.25;;;24.02;;
68192;SDS011;55012;47.562;18.414;2023-12-20T06:30:55;69.38;;;23.60;;
68192;SDS011;55012;47.562;18.414;2023-12-20T06:33:20;69.47;;;23.08;;
68192;SDS011;55012;47.562;18.414;2023-12-20T06:35:47;68.07;;;22.70;;
68192;SDS011;55012;47.562;18.414;2023-12-20T06:38:12;66.68;;;22.48;;
68192;SDS011;55012;47.562;18.414;2023-12-20T06:40:37;64.75;;;22.02;;
68192;SDS011;55012;47.562;18.414;2023-12-20T06:43:03;64.05;;;22.85;;
68192;SDS011;55012;47.562;18.414;2023-12-20T06:45:28;65.70;;;22.58;;
68192;SDS011;55012;47.562;18.414;2023-12-20T06:47:54;69.00;;;22.65;;
68192;SDS011;55012;47.562;18.414;2023-12-20T06:50:19;66.05;;;23.73;;
68192;SDS011;55012;47.562;18.414;2023-12-20T06:52:45;73.18;;;24.48;;
68192;SDS011;55012;47.562;18.414;2023-12-20T06:55:10;72.00;;;24.98;;
68192;SDS011;55012;47.562;18.414;2023-12-20T06:57:36;71.43;;;24.65;;
68192;SDS011;55012;47.562;18.414;2023-12-20T07:00:02;72.90;;;24.98;;
68192;SDS011;55012;47.562;18.414;2023-12-20T07:02:28;80.30;;;26.15;;
68192;SDS011;55012;47.562;18.414;2023-12-20T07:04:55;91.95;;;30.52;;
68192;SDS011;55012;47.562;18.414;2023-12-20T07:07:21;92.75;;;28.42;;
68192;SDS011;55012;47.562;18.414;2023-12-20T07:09:48;84.13;;;28.83;;
68192;SDS011;55012;47.562;18.414;2023-12-20T07:12:13;106.22;;;26.88;;
68192;SDS011;55012;47.562;18.414;2023-12-20T07:14:39;86.45;;;28.05;;
68192;SDS011;55012;47.562;18.414;2023-12-20T07:17:04;90.22;;;28.60;;
68192;SDS011;55012;47.562;18.414;2023-12-20T07:19:30;91.47;;;27.15;;
68192;SDS011;55012;47.562;18.414;2023-12-20T07:21:55;124.65;;;26.80;;
68192;SDS011;55012;47.562;18.414;2023-12-20T07:24:20;103.13;;;25.80;;
68192;SDS011;55012;47.562;18.414;2023-12-20T07:26:46;118.30;;;26.98;;
68192;SDS011;55012;47.562;18.414;2023-12-20T07:29:11;84.97;;;26.52;;
68192;SDS011;55012;47.562;18.414;2023-12-20T07:31:36;117.82;;;27.88;;
68192;SDS011;55012;47.562;18.414;2023-12-20T07:34:03;163.20;;;29.35;;
68192;SDS011;55012;47.562;18.414;2023-12-20T07:36:28;173.43;;;28.63;;
68192;SDS011;55012;47.562;18.414;2023-12-20T07:38:54;90.28;;;26.85;;
68192;SDS011;55012;47.562;18.414;2023-12-20T07:41:19;111.40;;;26.63;;
68192;SDS011;55012;47.562;18.414;2023-12-20T07:43:46;120.63;;;25.73;;
68192;SDS011;55012;47.562;18.414;2023-12-20T07:46:12;74.20;;;20.52;;
68192;SDS011;55012;47.562;18.414;2023-12-20T07:48:37;125.88;;;23.38;;
68192;SDS011;55012;47.562;18.414;2023-12-20T07:51:06;100.40;;;23.48;;
68192;SDS011;55012;47.562;18.414;2023-12-20T07:53:33;87.47;;;21.67;;
68192;SDS011;55012;47.562;18.414;2023-12-20T07:55:59;116.50;;;20.55;;
68192;SDS011;55012;47.562;18.414;2023-12-20T07:58:24;99.95;;;21.05;;
68192;SDS011;55012;47.562;18.414;2023-12-20T08:00:50;61.60;;;19.02;;
68192;SDS011;55012;47.562;18.414;2023-12-20T08:03:15;83.00;;;20.63;;
68192;SDS011;55012;47.562;18.414;2023-12-20T08:05:41;62.47;;;20.13;;
68192;SDS011;55012;47.562;18.414;2023-12-20T08:08:06;93.03;;;22.00;;
68192;SDS011;55012;47.562;18.414;2023-12-20T08:10:31;94.88;;;20.17;;
68192;SDS011;55012;47.562;18.414;2023-12-20T08:12:57;167.90;;;51.80;;
68192;SDS011;55012;47.562;18.414;2023-12-20T08:15:22;65.85;;;20.02;;
68192;SDS011;55012;47.562;18.414;2023-12-20T08:17:48;86.45;;;23.08;;
68192;SDS011;55012;47.562;18.414;2023-12-20T08:20:15;78.40;;;23.27;;
68192;SDS011;55012;47.562;18.414;2023-12-20T08:22:41;93.85;;;22.73;;
68192;SDS011;55012;47.562;18.414;2023-12-20T08:25:06;108.72;;;23.50;;
68192;SDS011;55012;47.562;18.414;2023-12-20T08:27:33;84.47;;;22.52;;
68192;SDS011;55012;47.562;18.414;2023-12-20T08:29:58;95.25;;;20.02;;
68192;SDS011;55012;47.562;18.414;2023-12-20T08:32:27;66.28;;;23.95;;
68192;SDS011;55012;47.562;18.414;2023-12-20T08:34:52;77.25;;;21.85;;
68192;SDS011;55012;47.562;18.414;2023-12-20T08:37:17;86.35;;;22.05;;
68192;SDS011;55012;47.562;18.414;2023-12-20T08:39:43;90.32;;;22.45;;
68192;SDS011;55012;47.562;18.414;2023-12-20T08:42:09;64.03;;;21.40;;
68192;SDS011;55012;47.562;18.414;2023-12-20T08:44:34;62.40;;;22.10;;
68192;SDS011;55012;47.562;18.414;2023-12-20T08:46:59;66.18;;;22.30;;
68192;SDS011;55012;47.562;18.414;2023-12-20T08:49:25;64.38;;;22.05;;
68192;SDS011;55012;47.562;18.414;2023-12-20T08:51:50;60.10;;;22.23;;
68192;SDS011;55012;47.562;18.414;2023-12-20T08:54:16;60.33;;;22.27;;
68192;SDS011;55012;47.562;18.414;2023-12-20T08:56:42;62.35;;;21.70;;
68192;SDS011;55012;47.562;18.414;2023-12-20T08:59:08;55.95;;;21.33;;
68192;SDS011;55012;47.562;18.414;2023-12-20T09:01:34;60.83;;;22.40;;
68192;SDS011;55012;47.562;18.414;2023-12-20T09:04:00;61.65;;;22.92;;
68192;SDS011;55012;47.562;18.414;2023-12-20T09:06:25;59.53;;;21.05;;
68192;SDS011;55012;47.562;18.414;2023-12-20T09:08:51;65.07;;;22.70;;
68192;SDS011;55012;47.562;18.414;2023-12-20T09:11:16;66.45;;;22.80;;
68192;SDS011;55012;47.562;18.414;2023-12-20T09:13:42;59.85;;;22.60;;
68192;SDS011;55012;47.562;18.414;2023-12-20T09:16:09;59.50;;;22.13;;
68192;SDS011;55012;47.562;18.414;2023-12-20T09:18:34;54.78;;;21.42;;
68192;SDS011;55012;47.562;18.414;2023-12-20T09:21:00;56.47;;;23.00;;
68192;SDS011;55012;47.562;18.414;2023-12-20T09:23:25;57.92;;;22.35;;
68192;SDS011;55012;47.562;18.414;2023-12-20T09:25:51;58.67;;;21.92;;
68192;SDS011;55012;47.562;18.414;2023-12-20T09:28:16;61.85;;;22.50;;
68192;SDS011;55012;47.562;18.414;2023-12-20T09:30:41;55.92;;;22.38;;
68192;SDS011;55012;47.562;18.414;2023-12-20T09:33:07;65.88;;;23.65;;
68192;SDS011;55012;47.562;18.414;2023-12-20T09:35:32;71.30;;;26.17;;
68192;SDS011;55012;47.562;18.414;2023-12-20T09:37:58;66.40;;;26.27;;
68192;SDS011;55012;47.562;18.414;2023-12-20T09:40:23;69.30;;;25.08;;
68192;SDS011;55012;47.562;18.414;2023-12-20T09:45:20;86.28;;;29.15;;
68192;SDS011;55012;47.562;18.414;2023-12-20T09:47:46;72.22;;;26.77;;
68192;SDS011;55012;47.562;18.414;2023-12-20T09:50:13;79.03;;;28.80;;
68192;SDS011;55012;47.562;18.414;2023-12-20T09:52:39;78.07;;;28.90;;
68192;SDS011;55012;47.562;18.414;2023-12-20T09:55:05;76.57;;;28.33;;
68192;SDS011;55012;47.562;18.414;2023-12-20T09:57:32;76.53;;;27.48;;
68192;SDS011;55012;47.562;18.414;2023-12-20T09:59:58;70.28;;;26.35;;
68192;SDS011;55012;47.562;18.414;2023-12-20T10:02:24;73.55;;;27.00;;
68192;SDS011;55012;47.562;18.414;2023-12-20T10:04:54;70.88;;;26.50;;
68192;SDS011;55012;47.562;18.414;2023-12-20T10:07:20;67.55;;;26.35;;
68192;SDS011;55012;47.562;18.414;2023-12-20T10:09:47;71.38;;;27.15;;
68192;SDS011;55012;47.562;18.414;2023-12-20T10:12:13;71.43;;;27.85;;
68192;SDS011;55012;47.562;18.414;2023-12-20T10:14:38;71.10;;;28.85;;
68192;SDS011;55012;47.562;18.414;2023-12-20T10:17:04;71.10;;;28.77;;
68192;SDS011;55012;47.562;18.414;2023-12-20T10:19:31;80.63;;;31.02;;
68192;SDS011;55012;47.562;18.414;2023-12-20T10:22:00;86.65;;;31.67;;
68192;SDS011;55012;47.562;18.414;2023-12-20T10:24:28;81.40;;;31.23;;
68192;SDS011;55012;47.562;18.414;2023-12-20T10:27:04;85.65;;;31.30;;
68192;SDS011;55012;47.562;18.414;2023-12-20T10:29:33;79.10;;;31.83;;
68192;SDS011;55012;47.562;18.414;2023-12-20T10:32:02;83.78;;;33.00;;
68192;SDS011;55012;47.562;18.414;2023-12-20T10:34:45;79.78;;;31.38;;
68192;SDS011;55012;47.562;18.414;2023-12-20T10:37:10;71.88;;;29.80;;
68192;SDS011;55012;47.562;18.414;2023-12-20T10:39:36;71.68;;;29.98;;
68192;SDS011;55012;47.562;18.414;2023-12-20T10:42:01;76.30;;;30.77;;
68192;SDS011;55012;47.562;18.414;2023-12-20T10:44:27;73.15;;;30.02;;
68192;SDS011;55012;47.562;18.414;2023-12-20T10:46:53;68.53;;;28.58;;
68192;SDS011;55012;47.562;18.414;2023-12-20T10:49:23;68.65;;;27.85;;
68192;SDS011;55012;47.562;18.414;2023-12-20T10:51:50;69.97;;;28.08;;
68192;SDS011;55012;47.562;18.414;2023-12-20T10:54:19;74.40;;;29.02;;
68192;SDS011;55012;47.562;18.414;2023-12-20T10:56:44;74.95;;;31.85;;
68192;SDS011;55012;47.562;18.414;2023-12-20T10:59:11;77.43;;;32.25;;
68192;SDS011;55012;47.562;18.414;2023-12-20T11:01:36;78.38;;;31.98;;
68192;SDS011;55012;47.562;18.414;2023-12-20T11:04:05;71.30;;;30.15;;
68192;SDS011;55012;47.562;18.414;2023-12-20T11:06:36;69.05;;;31.08;;
68192;SDS011;55012;47.562;18.414;2023-12-20T11:09:13;72.25;;;31.17;;
68192;SDS011;55012;47.562;18.414;2023-12-20T11:11:55;63.70;;;28.70;;
68192;SDS011;55012;47.562;18.414;2023-12-20T11:17:11;71.65;;;31.83;;
68192;SDS011;55012;47.562;18.414;2023-12-20T11:22:22;64.05;;;28.08;;
68192;SDS011;55012;47.562;18.414;2023-12-20T11:24:51;73.93;;;32.28;;
68192;SDS011;55012;47.562;18.414;2023-12-20T11:27:18;61.83;;;26.90;;
68192;SDS011;55012;47.562;18.414;2023-12-20T11:29:50;79.88;;;34.33;;
68192;SDS011;55012;47.562;18.414;2023-12-20T11:34:50;68.03;;;30.83;;
68192;SDS011;55012;47.562;18.414;2023-12-20T11:37:29;67.20;;;30.15;;
68192;SDS011;55012;47.562;18.414;2023-12-20T11:40:02;59.03;;;25.33;;
68192;SDS011;55012;47.562;18.414;2023-12-20T11:42:38;57.13;;;25.93;;
68192;SDS011;55012;47.562;18.414;2023-12-20T11:45:05;59.15;;;26.73;;
68192;SDS011;55012;47.562;18.414;2023-12-20T11:47:33;49.63;;;23.50;;
68192;SDS011;55012;47.562;18.414;2023-12-20T11:49:59;49.50;;;23.55;;
68192;SDS011;55012;47.562;18.414;2023-12-20T11:52:28;41.83;;;20.33;;
68192;SDS011;55012;47.562;18.414;2023-12-20T11:54:54;42.20;;;21.30;;
68192;SDS011;55012;47.562;18.414;2023-12-20T11:57:19;36.20;;;17.25;;
68192;SDS011;55012;47.562;18.414;2023-12-20T11:59:44;32.33;;;15.68;;
68192;SDS011;55012;47.562;18.414;2023-12-20T12:02:11;33.75;;;16.30;;
68192;SDS011;55012;47.562;18.414;2023-12-20T12:04:37;29.70;;;15.23;;
68192;SDS011;55012;47.562;18.414;2023-12-20T12:07:02;25.73;;;13.27;;
68192;SDS011;55012;47.562;18.414;2023-12-20T12:09:28;24.40;;;12.35;;
68192;SDS011;55012;47.562;18.414;2023-12-20T12:11:54;28.77;;;13.55;;
68192;SDS011;55012;47.562;18.414;2023-12-20T12:14:19;27.83;;;12.38;;
68192;SDS011;55012;47.562;18.414;2023-12-20T12:16:45;25.20;;;13.05;;
68192;SDS011;55012;47.562;18.414;2023-12-20T12:19:20;29.48;;;14.25;;
68192;SDS011;55012;47.562;18.414;2023-12-20T12:22:07;26.48;;;13.23;;
68192;SDS011;55012;47.562;18.414;2023-12-20T12:27:11;25.67;;;12.07;;
68192;SDS011;55012;47.562;18.414;2023-12-20T12:29:40;22.73;;;11.43;;
68192;SDS011;55012;47.562;18.414;2023-12-20T12:32:06;26.50;;;12.70;;
68192;SDS011;55012;47.562;18.414;2023-12-20T12:34:33;29.85;;;12.75;;
68192;SDS011;55012;47.562;18.414;2023-12-20T12:37:01;27.58;;;12.55;;
68192;SDS011;55012;47.562;18.414;2023-12-20T12:39:28;27.02;;;12.65;;
68192;SDS011;55012;47.562;18.414;2023-12-20T12:41:55;20.67;;;10.10;;
68192;SDS011;55012;47.562;18.414;2023-12-20T12:44:20;19.13;;;9.82;;
68192;SDS011;55012;47.562;18.414;2023-12-20T12:46:48;23.42;;;10.48;;
68192;SDS011;55012;47.562;18.414;2023-12-20T12:49:18;22.73;;;11.10;;
68192;SDS011;55012;47.562;18.414;2023-12-20T12:51:44;19.08;;;9.25;;
68192;SDS011;55012;47.562;18.414;2023-12-20T12:54:09;21.67;;;10.95;;
68192;SDS011;55012;47.562;18.414;2023-12-20T12:56:35;20.48;;;9.85;;
68192;SDS011;55012;47.562;18.414;2023-12-20T12:59:01;22.77;;;11.93;;
68192;SDS011;55012;47.562;18.414;2023-12-20T13:01:27;23.75;;;10.88;;
68192;SDS011;55012;47.562;18.414;2023-12-20T13:03:52;24.85;;;12.52;;
68192;SDS011;55012;47.562;18.414;2023-12-20T13:06:18;23.45;;;11.68;;
68192;SDS011;55012;47.562;18.414;2023-12-20T13:08:44;21.33;;;10.73;;
68192;SDS011;55012;47.562;18.414;2023-12-20T13:11:10;22.52;;;11.13;;
68192;SDS011;55012;47.562;18.414;2023-12-20T13:13:35;26.75;;;12.63;;
68192;SDS011;55012;47.562;18.414;2023-12-20T13:16:01;25.45;;;12.70;;
68192;SDS011;55012;47.562;18.414;2023-12-20T13:18:26;26.05;;;12.52;;
68192;SDS011;55012;47.562;18.414;2023-12-20T13:20:52;24.33;;;11.93;;
68192;SDS011;55012;47.562;18.414;2023-12-20T13:23:17;22.45;;;11.38;;
68192;SDS011;55012;47.562;18.414;2023-12-20T13:25:43;22.55;;;11.07;;
68192;SDS011;55012;47.562;18.414;2023-12-20T13:28:10;26.55;;;12.38;;
68192;SDS011;55012;47.562;18.414;2023-12-20T13:30:35;29.50;;;14.75;;
68192;SDS011;55012;47.562;18.414;2023-12-20T13:33:01;25.85;;;12.18;;
68192;SDS011;55012;47.562;18.414;2023-12-20T13:35:26;26.70;;;12.70;;
68192;SDS011;55012;47.562;18.414;2023-12-20T13:37:51;24.13;;;12.30;;
68192;SDS011;55012;47.562;18.414;2023-12-20T13:40:17;25.77;;;11.52;;
68192;SDS011;55012;47.562;18.414;2023-12-20T13:42:42;24.83;;;11.63;;
68192;SDS011;55012;47.562;18.414;2023-12-20T13:45:08;26.95;;;11.40;;
68192;SDS011;55012;47.562;18.414;2023-12-20T13:47:34;23.63;;;11.57;;
68192;SDS011;55012;47.562;18.414;2023-12-20T13:50:00;21.02;;;10.32;;
68192;SDS011;55012;47.562;18.414;2023-12-20T13:52:25;23.38;;;11.38;;
68192;SDS011;55012;47.562;18.414;2023-12-20T13:54:51;25.52;;;13.00;;
68192;SDS011;55012;47.562;18.414;2023-12-20T13:57:16;23.90;;;11.40;;
68192;SDS011;55012;47.562;18.414;2023-12-20T13:59:41;27.63;;;13.27;;
68192;SDS011;55012;47.562;18.414;2023-12-20T14:02:07;27.23;;;12.73;;
68192;SDS011;55012;47.562;18.414;2023-12-20T14:04:32;29.48;;;14.02;;
68192;SDS011;55012;47.562;18.414;2023-12-20T14:06:58;28.33;;;12.85;;
68192;SDS011;55012;47.562;18.414;2023-12-20T14:09:23;26.92;;;12.85;;
68192;SDS011;55012;47.562;18.414;2023-12-20T14:11:48;23.85;;;12.25;;
68192;SDS011;55012;47.562;18.414;2023-12-20T14:14:14;27.10;;;12.80;;